sensor_id;sensor_type;location;lat;lon;timestamp;pressure;altitude;pressure_sealevel;temperature;humidity
67931;BME280;63902;52.000;5.954;2023-06-14T00:00:58;101104.97;;;17.85;40.75
67931;BME280;63902;52.000;5.954;2023-06-14T00:01:59;101107.00;;;17.81;41.06
67931;BME280;63902;52.000;5.954;2023-06-14T00:02:59;101109.69;;;17.81;40.76
67931;BME280;63902;52.000;5.954;2023-06-14T00:04:01;101102.69;;;17.79;40.96
67931;BME280;63902;52.000;5.954;2023-06-14T00:05:02;101111.88;;;17.75;41.01
67931;BME280;63902;52.000;5.954;2023-06-14T00:06:03;101108.97;;;17.78;41.15
67931;BME280;63902;52.000;5.954;2023-06-14T00:07:04;101107.34;;;17.75;40.89
67931;BME280;63902;52.000;5.954;2023-06-14T00:08:05;101112.72;;;17.75;41.19
67931;BME280;63902;52.000;5.954;2023-06-14T00:09:05;101108.25;;;17.76;41.19
67931;BME280;63902;52.000;5.954;2023-06-14T00:10:06;101115.41;;;17.75;41.04
67931;BME280;63902;52.000;5.954;2023-06-14T00:11:07;101118.22;;;17.74;41.10
67931;BME280;63902;52.000;5.954;2023-06-14T00:12:08;101105.19;;;17.67;41.15
67931;BME280;63902;52.000;5.954;2023-06-14T00:13:09;101111.22;;;17.71;41.27
67931;BME280;63902;52.000;5.954;2023-06-14T00:14:09;101114.88;;;17.70;41.14
67931;BME280;63902;52.000;5.954;2023-06-14T00:15:10;101108.63;;;17.70;41.31
67931;BME280;63902;52.000;5.954;2023-06-14T00:16:11;101105.41;;;17.64;41.53
67931;BME280;63902;52.000;5.954;2023-06-14T00:17:11;101114.97;;;17.68;41.63
67931;BME280;63902;52.000;5.954;2023-06-14T00:18:12;101102.72;;;17.64;41.51
67931;BME280;63902;52.000;5.954;2023-06-14T00:19:13;101117.09;;;17.63;41.41
67931;BME280;63902;52.000;5.954;2023-06-14T00:20:14;101115.47;;;17.61;41.42
67931;BME280;63902;52.000;5.954;2023-06-14T00:21:14;101113.75;;;17.60;41.81
67931;BME280;63902;52.000;5.954;2023-06-14T00:22:15;101106.69;;;17.59;41.87
67931;BME280;63902;52.000;5.954;2023-06-14T00:23:15;101106.00;;;17.55;41.85
67931;BME280;63902;52.000;5.954;2023-06-14T00:24:16;101113.09;;;17.56;41.76
67931;BME280;63902;52.000;5.954;2023-06-14T00:25:16;101118.47;;;17.56;41.80
67931;BME280;63902;52.000;5.954;2023-06-14T00:26:17;101116.72;;;17.55;41.92
67931;BME280;63902;52.000;5.954;2023-06-14T00:27:17;101114.16;;;17.54;42.19
67931;BME280;63902;52.000;5.954;2023-06-14T00:28:18;101102.94;;;17.47;42.00
67931;BME280;63902;52.000;5.954;2023-06-14T00:29:19;101110.72;;;17.52;41.93
67931;BME280;63902;52.000;5.954;2023-06-14T00:30:20;101109.19;;;17.48;42.11
67931;BME280;63902;52.000;5.954;2023-06-14T00:31:20;101109.28;;;17.46;42.17
67931;BME280;63902;52.000;5.954;2023-06-14T00:32:21;101115.44;;;17.48;42.27
67931;BME280;63902;52.000;5.954;2023-06-14T00:33:21;101117.13;;;17.49;42.28
67931;BME280;63902;52.000;5.954;2023-06-14T00:34:23;101106.59;;;17.46;42.53
67931;BME280;63902;52.000;5.954;2023-06-14T00:35:24;101114.44;;;17.49;42.17
67931;BME280;63902;52.000;5.954;2023-06-14T00:36:24;101118.00;;;17.50;42.39
67931;BME280;63902;52.000;5.954;2023-06-14T00:37:25;101114.56;;;17.48;42.30
67931;BME280;63902;52.000;5.954;2023-06-14T00:38:25;101108.31;;;17.47;42.24
67931;BME280;63902;52.000;5.954;2023-06-14T00:39:25;101111.13;;;17.45;42.31
67931;BME280;63902;52.000;5.954;2023-06-14T00:40:26;101116.56;;;17.44;42.39
67931;BME280;63902;52.000;5.954;2023-06-14T00:41:26;101117.53;;;17.43;42.44
67931;BME280;63902;52.000;5.954;2023-06-14T00:42:27;101119.25;;;17.44;42.57
67931;BME280;63902;52.000;5.954;2023-06-14T00:43:28;101114.84;;;17.43;42.45
67931;BME280;63902;52.000;5.954;2023-06-14T00:44:29;101114.09;;;17.41;42.38
67931;BME280;63902;52.000;5.954;2023-06-14T00:45:29;101117.75;;;17.40;42.53
67931;BME280;63902;52.000;5.954;2023-06-14T00:46:29;101110.84;;;17.36;42.53
67931;BME280;63902;52.000;5.954;2023-06-14T00:47:30;101109.34;;;17.32;42.93
67931;BME280;63902;52.000;5.954;2023-06-14T00:48:31;101106.66;;;17.32;42.71
67931;BME280;63902;52.000;5.954;2023-06-14T00:49:33;101116.19;;;17.36;42.97
67931;BME280;63902;52.000;5.954;2023-06-14T00:50:34;101113.44;;;17.37;42.79
67931;BME280;63902;52.000;5.954;2023-06-14T00:51:35;101111.59;;;17.38;42.59
67931;BME280;63902;52.000;5.954;2023-06-14T00:52:36;101116.19;;;17.36;42.99
67931;BME280;63902;52.000;5.954;2023-06-14T00:53:36;101111.25;;;17.30;42.98
67931;BME280;63902;52.000;5.954;2023-06-14T00:54:37;101121.00;;;17.31;42.96
67931;BME280;63902;52.000;5.954;2023-06-14T00:55:37;101119.47;;;17.27;43.04
67931;BME280;63902;52.000;5.954;2023-06-14T00:56:38;101126.56;;;17.28;43.10
67931;BME280;63902;52.000;5.954;2023-06-14T00:57:40;101125.69;;;17.27;43.11
67931;BME280;63902;52.000;5.954;2023-06-14T00:58:41;101122.25;;;17.25;43.31
67931;BME280;63902;52.000;5.954;2023-06-14T00:59:43;101122.38;;;17.23;43.24
67931;BME280;63902;52.000;5.954;2023-06-14T01:00:44;101123.34;;;17.22;43.18
67931;BME280;63902;52.000;5.954;2023-06-14T01:01:44;101122.38;;;17.23;43.08
67931;BME280;63902;52.000;5.954;2023-06-14T01:02:45;101110.50;;;17.13;43.21
67931;BME280;63902;52.000;5.954;2023-06-14T01:03:45;101125.31;;;17.19;43.37
67931;BME280;63902;52.000;5.954;2023-06-14T01:04:48;101127.06;;;17.20;43.12
67931;BME280;63902;52.000;5.954;2023-06-14T01:05:53;101125.31;;;17.19;43.20
67931;BME280;63902;52.000;5.954;2023-06-14T01:07:02;101119.50;;;17.12;43.53
67931;BME280;63902;52.000;5.954;2023-06-14T01:08:14;101127.34;;;17.15;43.38
67931;BME280;63902;52.000;5.954;2023-06-14T01:09:30;101107.66;;;17.02;43.04
67931;BME280;63902;52.000;5.954;2023-06-14T01:10:38;101107.44;;;17.05;43.14
67931;BME280;63902;52.000;5.954;2023-06-14T01:11:48;101114.22;;;17.11;43.39
67931;BME280;63902;52.000;5.954;2023-06-14T01:12:54;101123.03;;;17.13;43.32
67931;BME280;63902;52.000;5.954;2023-06-14T01:13:59;101112.59;;;17.08;43.32
67931;BME280;63902;52.000;5.954;2023-06-14T01:15:03;101128.53;;;17.11;43.57
67931;BME280;63902;52.000;5.954;2023-06-14T01:16:05;101117.13;;;17.08;43.41
67931;BME280;63902;52.000;5.954;2023-06-14T01:17:07;101131.38;;;17.08;43.47
67931;BME280;63902;52.000;5.954;2023-06-14T01:18:08;101113.00;;;17.02;43.70
67931;BME280;63902;52.000;5.954;2023-06-14T01:19:11;101123.53;;;17.05;43.53
67931;BME280;63902;52.000;5.954;2023-06-14T01:20:15;101123.53;;;17.05;43.81
67931;BME280;63902;52.000;5.954;2023-06-14T01:21:22;101116.47;;;17.04;43.73
67931;BME280;63902;52.000;5.954;2023-06-14T01:22:24;101127.94;;;17.06;43.74
67931;BME280;63902;52.000;5.954;2023-06-14T01:23:26;101119.91;;;17.06;43.72
67931;BME280;63902;52.000;5.954;2023-06-14T01:24:26;101122.66;;;17.05;43.81
67931;BME280;63902;52.000;5.954;2023-06-14T01:25:27;101121.81;;;17.04;43.99
67931;BME280;63902;52.000;5.954;2023-06-14T01:26:27;101118.38;;;17.02;43.72
67931;BME280;63902;52.000;5.954;2023-06-14T01:27:28;101123.91;;;16.99;43.82
67931;BME280;63902;52.000;5.954;2023-06-14T01:28:29;101124.78;;;16.99;44.08
67931;BME280;63902;52.000;5.954;2023-06-14T01:29:30;101119.53;;;16.98;43.71
67931;BME280;63902;52.000;5.954;2023-06-14T01:30:31;101117.78;;;16.97;43.87
67931;BME280;63902;52.000;5.954;2023-06-14T01:31:32;101124.13;;;16.96;44.13
67931;BME280;63902;52.000;5.954;2023-06-14T01:32:34;101120.66;;;16.94;43.96
67931;BME280;63902;52.000;5.954;2023-06-14T01:33:35;101118.97;;;16.93;44.09
67931;BME280;63902;52.000;5.954;2023-06-14T01:34:36;101117.31;;;16.90;44.10
67931;BME280;63902;52.000;5.954;2023-06-14T01:35:37;101127.28;;;16.88;44.25
67931;BME280;63902;52.000;5.954;2023-06-14T01:36:40;101127.28;;;16.88;44.28
67931;BME280;63902;52.000;5.954;2023-06-14T01:37:41;101122.78;;;16.89;44.24
67931;BME280;63902;52.000;5.954;2023-06-14T01:38:45;101113.22;;;16.85;44.28
67931;BME280;63902;52.000;5.954;2023-06-14T01:39:47;101116.56;;;16.88;44.34
67931;BME280;63902;52.000;5.954;2023-06-14T01:40:48;101120.97;;;16.89;44.10
67931;BME280;63902;52.000;5.954;2023-06-14T01:41:50;101122.88;;;16.87;44.31
67931;BME280;63902;52.000;5.954;2023-06-14T01:42:52;101130.84;;;16.89;44.28
67931;BME280;63902;52.000;5.954;2023-06-14T01:43:52;101124.69;;;16.87;44.44
67931;BME280;63902;52.000;5.954;2023-06-14T01:44:54;101128.16;;;16.89;44.24
67931;BME280;63902;52.000;5.954;2023-06-14T01:45:57;101120.19;;;16.87;44.48
67931;BME280;63902;52.000;5.954;2023-06-14T01:46:57;101124.78;;;16.85;44.34
67931;BME280;63902;52.000;5.954;2023-06-14T01:47:59;101114.38;;;16.81;44.29
67931;BME280;63902;52.000;5.954;2023-06-14T01:49:00;101123.34;;;16.80;44.42
67931;BME280;63902;52.000;5.954;2023-06-14T01:50:01;101118.97;;;16.78;44.75
67931;BME280;63902;52.000;5.954;2023-06-14T01:51:02;101122.50;;;16.79;44.83
67931;BME280;63902;52.000;5.954;2023-06-14T01:52:03;101115.59;;;16.75;44.68
67931;BME280;63902;52.000;5.954;2023-06-14T01:53:06;101117.38;;;16.74;44.77
67931;BME280;63902;52.000;5.954;2023-06-14T01:54:08;101117.38;;;16.74;44.50
67931;BME280;63902;52.000;5.954;2023-06-14T01:55:09;101114.91;;;16.71;44.83
67931;BME280;63902;52.000;5.954;2023-06-14T01:56:09;101114.22;;;16.68;44.69
67931;BME280;63902;52.000;5.954;2023-06-14T01:57:11;101113.38;;;16.67;45.38
67931;BME280;63902;52.000;5.954;2023-06-14T01:58:12;101122.19;;;16.69;45.12
67931;BME280;63902;52.000;5.954;2023-06-14T01:59:12;101109.84;;;16.67;45.29
67931;BME280;63902;52.000;5.954;2023-06-14T02:00:14;101112.41;;;16.68;44.92
67931;BME280;63902;52.000;5.954;2023-06-14T02:01:14;101115.28;;;16.65;44.89
67931;BME280;63902;52.000;5.954;2023-06-14T02:02:15;101115.28;;;16.65;45.16
67931;BME280;63902;52.000;5.954;2023-06-14T02:03:15;101112.88;;;16.61;44.90
67931;BME280;63902;52.000;5.954;2023-06-14T02:04:16;101116.31;;;16.63;44.92
67931;BME280;63902;52.000;5.954;2023-06-14T02:05:16;101122.66;;;16.62;44.96
67931;BME280;63902;52.000;5.954;2023-06-14T02:06:17;101117.56;;;16.57;45.07
67931;BME280;63902;52.000;5.954;2023-06-14T02:07:17;101121.03;;;16.59;45.37
67931;BME280;63902;52.000;5.954;2023-06-14T02:08:18;101117.56;;;16.57;45.29
67931;BME280;63902;52.000;5.954;2023-06-14T02:09:20;101114.13;;;16.55;45.07
67931;BME280;63902;52.000;5.954;2023-06-14T02:10:20;101120.44;;;16.54;45.20
67931;BME280;63902;52.000;5.954;2023-06-14T02:11:21;101120.44;;;16.54;45.16
67931;BME280;63902;52.000;5.954;2023-06-14T02:12:21;101103.38;;;16.41;45.45
67931;BME280;63902;52.000;5.954;2023-06-14T02:13:22;101110.50;;;16.56;45.61
67931;BME280;63902;52.000;5.954;2023-06-14T02:14:24;101119.31;;;16.58;45.80
67931;BME280;63902;52.000;5.954;2023-06-14T02:15:24;101117.38;;;16.60;45.16
67931;BME280;63902;52.000;5.954;2023-06-14T02:16:25;101106.06;;;16.55;45.54
67931;BME280;63902;52.000;5.954;2023-06-14T02:17:25;101118.34;;;16.59;45.44
67931;BME280;63902;52.000;5.954;2023-06-14T02:18:26;101104.94;;;16.59;45.21
67931;BME280;63902;52.000;5.954;2023-06-14T02:19:27;101114.63;;;16.62;45.49
67931;BME280;63902;52.000;5.954;2023-06-14T02:20:27;101112.03;;;16.60;45.26
67931;BME280;63902;52.000;5.954;2023-06-14T02:21:28;101124.47;;;16.61;45.58
67931;BME280;63902;52.000;5.954;2023-06-14T02:22:28;101102.16;;;16.61;45.36
67931;BME280;63902;52.000;5.954;2023-06-14T02:23:29;101109.25;;;16.62;45.23
67931;BME280;63902;52.000;5.954;2023-06-14T02:24:30;101108.88;;;16.53;45.49
67931;BME280;63902;52.000;5.954;2023-06-14T02:25:31;101111.28;;;16.58;45.19
67931;BME280;63902;52.000;5.954;2023-06-14T02:26:31;101113.06;;;16.58;45.48
67931;BME280;63902;52.000;5.954;2023-06-14T02:27:32;101115.84;;;16.56;45.29
67931;BME280;63902;52.000;5.954;2023-06-14T02:28:32;101113.38;;;16.53;45.25
67931;BME280;63902;52.000;5.954;2023-06-14T02:29:33;101119.66;;;16.52;45.57
67931;BME280;63902;52.000;5.954;2023-06-14T02:30:33;101121.59;;;16.50;45.89
67931;BME280;63902;52.000;5.954;2023-06-14T02:31:34;101119.84;;;16.49;45.62
67931;BME280;63902;52.000;5.954;2023-06-14T02:32:35;101123.31;;;16.51;46.34
67931;BME280;63902;52.000;5.954;2023-06-14T02:33:36;101110.19;;;16.46;45.68
67931;BME280;63902;52.000;5.954;2023-06-14T02:34:36;101124.34;;;16.48;45.77
67931;BME280;63902;52.000;5.954;2023-06-14T02:35:36;101113.84;;;16.45;45.88
67931;BME280;63902;52.000;5.954;2023-06-14T02:36:37;101115.66;;;16.45;45.64
67931;BME280;63902;52.000;5.954;2023-06-14T02:37:37;101114.03;;;16.42;45.82
67931;BME280;63902;52.000;5.954;2023-06-14T02:38:38;101121.28;;;16.40;46.07
67931;BME280;63902;52.000;5.954;2023-06-14T02:39:40;101115.06;;;16.40;46.30
67931;BME280;63902;52.000;5.954;2023-06-14T02:40:40;101119.63;;;16.38;46.06
67931;BME280;63902;52.000;5.954;2023-06-14T02:41:41;101117.94;;;16.37;45.76
67931;BME280;63902;52.000;5.954;2023-06-14T02:42:41;101113.88;;;16.29;46.23
67931;BME280;63902;52.000;5.954;2023-06-14T02:43:43;101114.59;;;16.33;45.86
67931;BME280;63902;52.000;5.954;2023-06-14T02:44:43;101119.25;;;16.29;45.95
67931;BME280;63902;52.000;5.954;2023-06-14T02:45:44;101115.81;;;16.27;46.01
67931;BME280;63902;52.000;5.954;2023-06-14T02:46:44;101119.63;;;16.23;46.32
67931;BME280;63902;52.000;5.954;2023-06-14T02:47:45;101124.78;;;16.26;46.63
67931;BME280;63902;52.000;5.954;2023-06-14T02:48:45;101112.63;;;16.21;46.39
67931;BME280;63902;52.000;5.954;2023-06-14T02:49:46;101123.06;;;16.25;46.20
67931;BME280;63902;52.000;5.954;2023-06-14T02:50:46;101126.69;;;16.24;47.02
67931;BME280;63902;52.000;5.954;2023-06-14T02:51:47;101116.94;;;16.23;46.30
67931;BME280;63902;52.000;5.954;2023-06-14T02:52:47;101123.16;;;16.24;46.47
67931;BME280;63902;52.000;5.954;2023-06-14T02:53:48;101117.91;;;16.22;46.15
67931;BME280;63902;52.000;5.954;2023-06-14T02:54:50;101123.16;;;16.24;46.20
67931;BME280;63902;52.000;5.954;2023-06-14T02:55:50;101127.66;;;16.23;46.38
67931;BME280;63902;52.000;5.954;2023-06-14T02:56:51;101134.91;;;16.21;46.53
67931;BME280;63902;52.000;5.954;2023-06-14T02:57:51;101130.50;;;16.20;46.58
67931;BME280;63902;52.000;5.954;2023-06-14T02:58:52;101126.88;;;16.21;46.66
67931;BME280;63902;52.000;5.954;2023-06-14T02:59:52;101128.78;;;16.19;46.85
67931;BME280;63902;52.000;5.954;2023-06-14T03:00:53;101132.41;;;16.18;46.63
67931;BME280;63902;52.000;5.954;2023-06-14T03:01:53;101137.09;;;16.15;46.86
67931;BME280;63902;52.000;5.954;2023-06-14T03:02:54;101112.78;;;16.03;46.56
67931;BME280;63902;52.000;5.954;2023-06-14T03:03:54;101129.44;;;16.08;46.66
67931;BME280;63902;52.000;5.954;2023-06-14T03:04:55;101125.97;;;16.06;46.78
67931;BME280;63902;52.000;5.954;2023-06-14T03:05:55;101144.44;;;16.11;47.92
67931;BME280;63902;52.000;5.954;2023-06-14T03:06:56;101134.69;;;16.10;46.80
67931;BME280;63902;52.000;5.954;2023-06-14T03:07:56;101141.78;;;16.11;46.82
67931;BME280;63902;52.000;5.954;2023-06-14T03:08:57;101141.06;;;16.07;46.90
67931;BME280;63902;52.000;5.954;2023-06-14T03:09:59;101146.53;;;16.06;46.91
67931;BME280;63902;52.000;5.954;2023-06-14T03:10:59;101142.28;;;16.02;47.17
67931;BME280;63902;52.000;5.954;2023-06-14T03:12:00;101140.50;;;16.02;47.40
67931;BME280;63902;52.000;5.954;2023-06-14T03:13:00;101124.28;;;15.89;47.11
67931;BME280;63902;52.000;5.954;2023-06-14T03:14:01;101146.03;;;15.99;47.22
67931;BME280;63902;52.000;5.954;2023-06-14T03:15:01;101151.47;;;15.98;47.54
67931;BME280;63902;52.000;5.954;2023-06-14T03:16:02;101148.88;;;15.96;47.66
67931;BME280;63902;52.000;5.954;2023-06-14T03:17:03;101149.94;;;15.94;47.55
67931;BME280;63902;52.000;5.954;2023-06-14T03:18:03;101146.47;;;15.92;47.69
67931;BME280;63902;52.000;5.954;2023-06-14T03:19:04;101150.06;;;15.91;47.64
67931;BME280;63902;52.000;5.954;2023-06-14T03:20:06;101152.84;;;15.89;47.79
67931;BME280;63902;52.000;5.954;2023-06-14T03:21:06;101151.22;;;15.86;47.75
67931;BME280;63902;52.000;5.954;2023-06-14T03:22:07;101146.84;;;15.85;47.61
67931;BME280;63902;52.000;5.954;2023-06-14T03:23:07;101147.03;;;15.82;47.78
67931;BME280;63902;52.000;5.954;2023-06-14T03:24:08;101140.28;;;15.75;47.67
67931;BME280;63902;52.000;5.954;2023-06-14T03:25:10;101153.47;;;15.78;47.70
67931;BME280;63902;52.000;5.954;2023-06-14T03:26:10;101154.44;;;15.77;48.13
67931;BME280;63902;52.000;5.954;2023-06-14T03:27:11;101138.91;;;15.68;47.88
67931;BME280;63902;52.000;5.954;2023-06-14T03:28:11;101151.06;;;15.74;48.33
67931;BME280;63902;52.000;5.954;2023-06-14T03:29:12;101154.50;;;15.76;48.16
67931;BME280;63902;52.000;5.954;2023-06-14T03:30:12;101158.16;;;15.75;48.16
67931;BME280;63902;52.000;5.954;2023-06-14T03:31:13;101159.78;;;15.77;47.91
67931;BME280;63902;52.000;5.954;2023-06-14T03:32:14;101165.13;;;15.77;48.09
67931;BME280;63902;52.000;5.954;2023-06-14T03:33:14;101161.69;;;15.75;47.96
67931;BME280;63902;52.000;5.954;2023-06-14T03:34:15;101165.22;;;15.76;48.07
67931;BME280;63902;52.000;5.954;2023-06-14T03:35:15;101157.19;;;15.76;48.19
67931;BME280;63902;52.000;5.954;2023-06-14T03:36:16;101159.06;;;15.74;48.04
67931;BME280;63902;52.000;5.954;2023-06-14T03:37:16;101150.59;;;15.65;48.68
67931;BME280;63902;52.000;5.954;2023-06-14T03:38:17;101142.69;;;15.64;48.37
67931;BME280;63902;52.000;5.954;2023-06-14T03:39:17;101153.19;;;15.67;48.45
67931;BME280;63902;52.000;5.954;2023-06-14T03:40:20;101162.81;;;15.71;48.13
67931;BME280;63902;52.000;5.954;2023-06-14T03:41:21;101160.22;;;15.70;48.25
67931;BME280;63902;52.000;5.954;2023-06-14T03:42:21;101167.38;;;15.69;48.56
67931;BME280;63902;52.000;5.954;2023-06-14T03:43:22;101169.19;;;15.69;48.37
67931;BME280;63902;52.000;5.954;2023-06-14T03:44:22;101156.84;;;15.66;48.42
67931;BME280;63902;52.000;5.954;2023-06-14T03:45:23;101167.44;;;15.67;48.27
67931;BME280;63902;52.000;5.954;2023-06-14T03:46:23;101163.84;;;15.69;48.23
67931;BME280;63902;52.000;5.954;2023-06-14T03:47:24;101158.72;;;15.64;48.35
67931;BME280;63902;52.000;5.954;2023-06-14T03:48:24;101168.25;;;15.70;48.34
67931;BME280;63902;52.000;5.954;2023-06-14T03:49:24;101164.72;;;15.69;48.32
67931;BME280;63902;52.000;5.954;2023-06-14T03:50:25;101168.38;;;15.66;48.45
67931;BME280;63902;52.000;5.954;2023-06-14T03:51:25;101168.38;;;15.66;48.71
67931;BME280;63902;52.000;5.954;2023-06-14T03:52:26;101171.13;;;15.65;48.75
67931;BME280;63902;52.000;5.954;2023-06-14T03:53:27;101163.97;;;15.65;48.48
67931;BME280;63902;52.000;5.954;2023-06-14T03:54:27;101173.66;;;15.68;48.53
67931;BME280;63902;52.000;5.954;2023-06-14T03:55:29;101166.63;;;15.65;48.67
67931;BME280;63902;52.000;5.954;2023-06-14T03:56:30;101171.88;;;15.69;49.00
67931;BME280;63902;52.000;5.954;2023-06-14T03:57:30;101176.25;;;15.70;48.59
67931;BME280;63902;52.000;5.954;2023-06-14T03:58:31;101184.28;;;15.70;48.65
67931;BME280;63902;52.000;5.954;2023-06-14T03:59:31;101171.00;;;15.68;48.64
67931;BME280;63902;52.000;5.954;2023-06-14T04:00:32;101173.81;;;15.65;48.84
67931;BME280;63902;52.000;5.954;2023-06-14T04:01:32;101182.63;;;15.67;48.72
67931;BME280;63902;52.000;5.954;2023-06-14T04:02:33;101181.81;;;15.65;48.86
67931;BME280;63902;52.000;5.954;2023-06-14T04:03:33;101181.69;;;15.68;48.94
67931;BME280;63902;52.000;5.954;2023-06-14T04:04:33;101187.03;;;15.68;49.03
67931;BME280;63902;52.000;5.954;2023-06-14T04:05:34;101165.28;;;15.58;48.86
67931;BME280;63902;52.000;5.954;2023-06-14T04:06:34;101178.94;;;15.70;48.97
67931;BME280;63902;52.000;5.954;2023-06-14T04:07:35;101180.97;;;15.64;48.76
67931;BME280;63902;52.000;5.954;2023-06-14T04:08:35;101188.81;;;15.67;48.78
67931;BME280;63902;52.000;5.954;2023-06-14T04:09:36;101189.78;;;15.66;48.73
67931;BME280;63902;52.000;5.954;2023-06-14T04:10:38;101191.59;;;15.66;48.75
67931;BME280;63902;52.000;5.954;2023-06-14T04:11:38;101195.19;;;15.65;48.99
67931;BME280;63902;52.000;5.954;2023-06-14T04:12:39;101187.97;;;15.67;48.95
67931;BME280;63902;52.000;5.954;2023-06-14T04:13:40;101189.78;;;15.66;48.99
67931;BME280;63902;52.000;5.954;2023-06-14T04:14:40;101185.28;;;15.67;49.21
67931;BME280;63902;52.000;5.954;2023-06-14T04:15:41;101195.97;;;15.67;49.42
67931;BME280;63902;52.000;5.954;2023-06-14T04:16:41;101193.38;;;15.65;49.07
67931;BME280;63902;52.000;5.954;2023-06-14T04:17:42;101199.47;;;15.69;49.31
67931;BME280;63902;52.000;5.954;2023-06-14T04:18:42;101190.81;;;15.64;49.48
67931;BME280;63902;52.000;5.954;2023-06-14T04:19:43;101208.44;;;15.68;49.04
67931;BME280;63902;52.000;5.954;2023-06-14T04:20:43;101204.97;;;15.66;49.09
67931;BME280;63902;52.000;5.954;2023-06-14T04:21:44;101200.47;;;15.66;49.17
67931;BME280;63902;52.000;5.954;2023-06-14T04:22:44;101204.06;;;15.65;49.53
67931;BME280;63902;52.000;5.954;2023-06-14T04:23:45;101208.50;;;15.66;49.55
67931;BME280;63902;52.000;5.954;2023-06-14T04:24:45;101210.31;;;15.66;49.89
67931;BME280;63902;52.000;5.954;2023-06-14T04:25:47;101206.69;;;15.67;49.79
67931;BME280;63902;52.000;5.954;2023-06-14T04:26:48;101205.69;;;15.70;49.41
67931;BME280;63902;52.000;5.954;2023-06-14T04:27:49;101211.16;;;15.66;49.35
67931;BME280;63902;52.000;5.954;2023-06-14T04:28:49;101206.69;;;15.67;49.67
67931;BME280;63902;52.000;5.954;2023-06-14T04:29:50;101203.22;;;15.65;49.12
67931;BME280;63902;52.000;5.954;2023-06-14T04:30:51;101207.53;;;15.67;49.72
67931;BME280;63902;52.000;5.954;2023-06-14T04:31:51;101211.88;;;15.70;49.69
67931;BME280;63902;52.000;5.954;2023-06-14T04:32:52;101209.22;;;15.70;49.49
67931;BME280;63902;52.000;5.954;2023-06-14T04:33:52;101216.38;;;15.70;49.66
67931;BME280;63902;52.000;5.954;2023-06-14T04:34:53;101216.38;;;15.70;49.48
67931;BME280;63902;52.000;5.954;2023-06-14T04:35:54;101221.66;;;15.71;49.78
67931;BME280;63902;52.000;5.954;2023-06-14T04:36:55;101221.56;;;15.73;49.63
67931;BME280;63902;52.000;5.954;2023-06-14T04:37:55;101215.53;;;15.69;49.81
67931;BME280;63902;52.000;5.954;2023-06-14T04:38:56;101210.31;;;15.66;49.90
67931;BME280;63902;52.000;5.954;2023-06-14T04:39:56;101220.78;;;15.71;49.77
67931;BME280;63902;52.000;5.954;2023-06-14T04:40:58;101221.56;;;15.73;49.88
67931;BME280;63902;52.000;5.954;2023-06-14T04:41:59;101197.97;;;15.63;50.45
67931;BME280;63902;52.000;5.954;2023-06-14T04:42:59;101208.34;;;15.70;50.38
67931;BME280;63902;52.000;5.954;2023-06-14T04:44:00;101228.38;;;15.78;50.05
67931;BME280;63902;52.000;5.954;2023-06-14T04:45:01;101217.59;;;15.80;49.79
67931;BME280;63902;52.000;5.954;2023-06-14T04:46:01;101221.97;;;15.81;49.72
67931;BME280;63902;52.000;5.954;2023-06-14T04:47:02;101210.84;;;15.73;49.83
67931;BME280;63902;52.000;5.954;2023-06-14T04:48:03;101205.59;;;15.71;49.89
67931;BME280;63902;52.000;5.954;2023-06-14T05:27:41;101236.28;;;16.27;49.48
67931;BME280;63902;52.000;5.954;2023-06-14T05:28:41;101245.84;;;16.31;49.55
67931;BME280;63902;52.000;5.954;2023-06-14T05:29:42;101250.34;;;16.31;49.59
67931;BME280;63902;52.000;5.954;2023-06-14T05:30:42;101230.69;;;16.16;49.68
67931;BME280;63902;52.000;5.954;2023-06-14T05:31:42;101242.56;;;16.26;49.81
67931;BME280;63902;52.000;5.954;2023-06-14T05:32:43;101256.34;;;16.34;50.03
67931;BME280;63902;52.000;5.954;2023-06-14T05:33:43;101245.66;;;16.34;49.72
67931;BME280;63902;52.000;5.954;2023-06-14T05:34:44;101240.03;;;16.39;49.74
67931;BME280;63902;52.000;5.954;2023-06-14T05:35:44;101243.38;;;16.43;49.87
67931;BME280;63902;52.000;5.954;2023-06-14T05:36:45;101251.34;;;16.44;49.80
67931;BME280;63902;52.000;5.954;2023-06-14T05:37:47;101230.25;;;16.38;50.00
67931;BME280;63902;52.000;5.954;2023-06-14T05:38:47;101224.41;;;16.31;49.87
67931;BME280;63902;52.000;5.954;2023-06-14T05:39:48;101246.66;;;16.48;50.13
67931;BME280;63902;52.000;5.954;2023-06-14T05:40:48;101248.38;;;16.49;50.06
67931;BME280;63902;52.000;5.954;2023-06-14T05:41:51;101244.06;;;16.46;51.07
67931;BME280;63902;52.000;5.954;2023-06-14T05:42:53;101254.25;;;16.55;50.02
67931;BME280;63902;52.000;5.954;2023-06-14T05:43:54;101254.06;;;16.59;50.00
67931;BME280;63902;52.000;5.954;2023-06-14T05:44:54;101253.03;;;16.61;50.00
67931;BME280;63902;52.000;5.954;2023-06-14T05:45:55;101254.66;;;16.64;49.65
67931;BME280;63902;52.000;5.954;2023-06-14T05:46:55;101255.53;;;16.64;49.80
67931;BME280;63902;52.000;5.954;2023-06-14T05:47:56;101249.19;;;16.65;49.98
67931;BME280;63902;52.000;5.954;2023-06-14T05:48:56;101267.56;;;16.71;49.60
67931;BME280;63902;52.000;5.954;2023-06-14T05:52:17;101264.56;;;16.77;49.52
67931;BME280;63902;52.000;5.954;2023-06-14T05:53:18;101262.66;;;16.80;49.73
67931;BME280;63902;52.000;5.954;2023-06-14T05:54:18;101234.94;;;16.65;50.19
67931;BME280;63902;52.000;5.954;2023-06-14T05:55:19;101249.44;;;16.76;49.63
67931;BME280;63902;52.000;5.954;2023-06-14T05:56:21;101256.91;;;16.86;49.59
67931;BME280;63902;52.000;5.954;2023-06-14T06:03:21;101283.00;;;17.12;49.57
67931;BME280;63902;52.000;5.954;2023-06-14T06:04:22;101262.16;;;17.03;49.21
67931;BME280;63902;52.000;5.954;2023-06-14T06:05:23;101275.84;;;17.13;49.15
67931;BME280;63902;52.000;5.954;2023-06-14T06:08:38;101289.34;;;17.26;49.18